createdAt,value
2023-05-19T00:00:15.040Z,100518.53
2023-05-19T00:02:44.533Z,100517.53
2023-05-19T00:05:15.239Z,100516.94
2023-05-19T00:07:45.764Z,100513.84
2023-05-19T00:10:15.169Z,100522.72
2023-05-19T00:12:44.821Z,100518.56
2023-05-19T00:15:15.909Z,100522.78
2023-05-19T00:17:44.872Z,100516.25
2023-05-19T00:20:14.449Z,100524.09
2023-05-19T00:22:44.299Z,100526.13
2023-05-19T00:25:12.582Z,100532.38
2023-05-19T00:27:40.668Z,100526.22
2023-05-19T00:30:10.058Z,100524.44
2023-05-19T00:32:40.461Z,100519.31
2023-05-19T00:35:12.437Z,100507.19
2023-05-19T00:37:40.646Z,100514.41
2023-05-19T00:40:11.435Z,100510.31
2023-05-19T00:42:39.974Z,100502.91
2023-05-19T00:45:08.948Z,100505.63
2023-05-19T00:47:37.376Z,100506.47
2023-05-19T00:50:07.702Z,100509.88
2023-05-19T00:52:36.026Z,100508.34
2023-05-19T00:55:04.548Z,100504.94
2023-05-19T00:57:32.722Z,100508.78
2023-05-19T01:00:01.049Z,100503.53
2023-05-19T01:02:29.880Z,100509.88
2023-05-19T01:04:59.129Z,100505.50
2023-05-19T01:07:29.396Z,100503.03
2023-05-19T01:09:57.727Z,100500.44
2023-05-19T01:12:27.081Z,100496.44
2023-05-19T01:14:55.226Z,100500.94
2023-05-19T01:17:38.120Z,100503.66
2023-05-19T01:20:12.102Z,100501.19
2023-05-19T01:23:05.588Z,100500.41
2023-05-19T01:26:12.161Z,100508.25
2023-05-19T01:29:04.297Z,100503.97
2023-05-19T01:31:35.169Z,100509.25
2023-05-19T01:34:05.898Z,100505.75
2023-05-19T01:36:35.117Z,100506.69
2023-05-19T01:39:04.518Z,100510.28
2023-05-19T01:41:34.369Z,100510.28
2023-05-19T01:44:02.592Z,100506.84
2023-05-19T01:46:30.795Z,100506.09
2023-05-19T01:49:01.103Z,100498.47
2023-05-19T01:51:29.292Z,100493.50
2023-05-19T01:53:57.627Z,100494.00
2023-05-19T01:56:39.570Z,100491.66
2023-05-19T01:59:23.176Z,100495.47
2023-05-19T02:01:54.976Z,100493.63
2023-05-19T02:04:33.324Z,100500.81
2023-05-19T02:07:06.747Z,100501.69
2023-05-19T02:09:42.338Z,100499.78
2023-05-19T02:12:18.366Z,100498.19
2023-05-19T02:14:54.228Z,100501.72
2023-05-19T02:17:24.707Z,100505.31
2023-05-19T02:19:54.309Z,100505.63
2023-05-19T02:22:22.504Z,100500.97
2023-05-19T02:24:51.918Z,100495.69
2023-05-19T02:27:20.094Z,100496.78
2023-05-19T02:29:48.226Z,100496.88
2023-05-19T02:32:17.145Z,100485.75
2023-05-19T02:34:45.793Z,100500.34
2023-05-19T02:37:15.836Z,100503.00
2023-05-19T02:39:44.216Z,100500.34
2023-05-19T02:42:14.894Z,100500.63
2023-05-19T02:44:43.088Z,100493.81
2023-05-19T02:47:11.393Z,100494.88
2023-05-19T02:49:39.554Z,100496.91
2023-05-19T02:52:08.366Z,100500.63
2023-05-19T02:54:37.783Z,100497.22
2023-05-19T02:57:06.913Z,100494.63
2023-05-19T02:59:35.133Z,100496.28
2023-05-19T03:02:04.004Z,100505.00
2023-05-19T03:04:33.331Z,100501.41
2023-05-19T03:07:02.291Z,100503.97
2023-05-19T03:09:30.417Z,100506.59
2023-05-19T03:12:04.038Z,100507.31
2023-05-19T03:14:34.105Z,100499.25
2023-05-19T03:17:02.329Z,100508.06
2023-05-19T03:19:32.596Z,100517.78
2023-05-19T03:22:00.717Z,100511.59
2023-05-19T03:24:28.888Z,100515.84
2023-05-19T03:26:57.002Z,100518.50
2023-05-19T03:29:26.437Z,100522.78
2023-05-19T03:31:54.537Z,100518.34
2023-05-19T03:34:22.704Z,100512.00
2023-05-19T03:36:50.837Z,100515.25
2023-05-19T03:39:18.994Z,100506.34
2023-05-19T03:41:47.172Z,100507.09
2023-05-19T03:44:15.778Z,100509.59
2023-05-19T03:46:45.230Z,100505.16
2023-05-19T03:49:14.045Z,100517.28
2023-05-19T03:51:43.250Z,100515.13
2023-05-19T03:54:11.356Z,100505.31
2023-05-19T03:56:42.161Z,100501.69
2023-05-19T03:59:13.035Z,100507.81
2023-05-19T04:01:41.177Z,100509.72
2023-05-19T04:04:12.488Z,100512.00
2023-05-19T04:06:40.623Z,100524.56
2023-05-19T04:09:14.611Z,100518.00
2023-05-19T04:11:43.191Z,100518.00
2023-05-19T04:14:11.381Z,100519.09
2023-05-19T04:16:39.701Z,100517.16
2023-05-19T04:19:07.866Z,100510.44
2023-05-19T04:21:37.479Z,100527.41
2023-05-19T04:24:06.677Z,100532.44
2023-05-19T04:26:35.320Z,100537.06
2023-05-19T04:29:04.911Z,100532.72
2023-05-19T04:31:36.604Z,100531.91
2023-05-19T04:34:04.798Z,100532.00
2023-05-19T04:36:34.210Z,100535.41
2023-05-19T04:39:07.529Z,100540.63
2023-05-19T04:41:35.651Z,100540.31
2023-05-19T04:44:04.130Z,100549.47
2023-05-19T04:46:32.420Z,100542.66
2023-05-19T04:49:01.416Z,100547.63
2023-05-19T04:51:31.482Z,100548.59
2023-05-19T04:53:59.797Z,100546.69
2023-05-19T04:56:30.230Z,100546.69
2023-05-19T04:58:58.474Z,100547.72
2023-05-19T05:01:27.049Z,100553.31
2023-05-19T05:03:59.307Z,100541.19
2023-05-19T05:06:28.737Z,100541.22
2023-05-19T05:08:57.007Z,100548.59
2023-05-19T05:11:25.898Z,100554.19
2023-05-19T05:13:58.295Z,100550.84
2023-05-19T05:16:27.714Z,100554.00
2023-05-19T05:18:56.432Z,100549.34
2023-05-19T05:21:25.322Z,100561.38
2023-05-19T05:23:54.175Z,100557.44
2023-05-19T05:26:23.404Z,100562.94
2023-05-19T05:28:51.691Z,100557.25
2023-05-19T05:31:21.296Z,100562.81
2023-05-19T05:33:49.655Z,100561.94
2023-05-19T05:36:17.894Z,100565.63
2023-05-19T05:38:46.067Z,100564.00
2023-05-19T05:41:14.303Z,100554.81
2023-05-19T05:43:42.537Z,100560.59
2023-05-19T05:46:10.815Z,100566.09
2023-05-19T05:48:42.787Z,100566.97
2023-05-19T05:51:11.611Z,100564.13
2023-05-19T05:53:44.338Z,100566.53
2023-05-19T05:56:14.390Z,100559.34
2023-05-19T05:58:42.581Z,100568.84
2023-05-19T06:01:11.780Z,100562.00
2023-05-19T06:03:44.490Z,100568.97
2023-05-19T06:06:12.869Z,100571.03
2023-05-19T06:08:41.251Z,100567.56
2023-05-19T06:11:09.603Z,100578.09
2023-05-19T06:13:38.189Z,100573.91
2023-05-19T06:16:07.046Z,100566.06
2023-05-19T06:18:35.308Z,100555.38
2023-05-19T06:21:05.111Z,100567.63
2023-05-19T06:23:33.291Z,100569.66
2023-05-19T06:26:01.457Z,100575.81
2023-05-19T06:28:29.551Z,100573.75
2023-05-19T06:30:57.709Z,100569.28
2023-05-19T06:33:28.828Z,100574.50
2023-05-19T06:36:01.124Z,100580.88
2023-05-19T06:38:31.656Z,100587.03
2023-05-19T06:40:59.719Z,100597.31
2023-05-19T06:43:28.880Z,100589.84
2023-05-19T06:45:57.171Z,100598.44
2023-05-19T06:48:25.377Z,100599.16
2023-05-19T06:50:53.625Z,100590.66
2023-05-19T06:53:22.107Z,100601.22
2023-05-19T06:55:59.341Z,100600.78
2023-05-19T06:58:28.413Z,100604.75
2023-05-19T07:00:56.576Z,100605.31
2023-05-19T07:03:24.796Z,100612.34
2023-05-19T07:05:53.143Z,100612.47
2023-05-19T07:08:21.224Z,100606.47
2023-05-19T07:10:49.388Z,100602.84
2023-05-19T07:13:18.937Z,100598.53
2023-05-19T07:15:49.112Z,100603.09
2023-05-19T07:18:17.588Z,100592.44
2023-05-19T07:20:46.223Z,100602.16
2023-05-19T07:23:17.150Z,100591.03
2023-05-19T07:25:45.766Z,100589.56
2023-05-19T07:28:13.898Z,100584.81
2023-05-19T07:30:43.513Z,100583.25
2023-05-19T07:35:39.829Z,100581.84
2023-05-19T07:38:08.529Z,100585.38
2023-05-19T07:43:04.861Z,100587.22
2023-05-19T07:45:33.151Z,100585.91
2023-05-19T07:48:02.737Z,100582.09
2023-05-19T07:50:31.083Z,100576.50
2023-05-19T07:52:59.436Z,100573.88
2023-05-19T07:55:30.593Z,100576.94
2023-05-19T07:57:58.731Z,100574.78
2023-05-19T08:00:26.992Z,100564.66
2023-05-19T08:02:57.126Z,100564.41
2023-05-19T08:05:26.913Z,100553.22
2023-05-19T08:07:55.044Z,100569.06
2023-05-19T08:10:23.340Z,100562.63
2023-05-19T08:12:51.457Z,100554.88
2023-05-19T08:15:19.976Z,100558.31
2023-05-19T08:17:48.131Z,100551.28
2023-05-19T08:20:16.212Z,100553.69
2023-05-19T08:22:45.888Z,100557.28
2023-05-19T08:25:14.037Z,100559.25
2023-05-19T08:27:42.180Z,100551.78
2023-05-19T08:30:11.544Z,100554.59
2023-05-19T08:32:39.725Z,100539.22
2023-05-19T08:35:08.962Z,100547.28
2023-05-19T08:37:38.762Z,100546.66
2023-05-19T08:40:13.227Z,100552.31
2023-05-19T08:42:41.437Z,100556.19
2023-05-19T08:45:10.463Z,100559.56
2023-05-19T08:47:38.738Z,100559.00
2023-05-19T08:50:11.075Z,100555.44
2023-05-19T08:52:48.860Z,100556.38
2023-05-19T08:55:31.395Z,100549.34
2023-05-19T08:58:00.056Z,100550.72
2023-05-19T09:00:29.652Z,100548.34
2023-05-19T09:03:10.792Z,100546.72
2023-05-19T09:05:47.003Z,100548.31
2023-05-19T09:08:16.244Z,100556.78
2023-05-19T09:10:45.830Z,100546.72
2023-05-19T09:13:13.962Z,100552.34
2023-05-19T09:15:43.633Z,100553.03
2023-05-19T09:18:13.485Z,100548.38
2023-05-19T09:20:43.162Z,100545.41
2023-05-19T09:23:16.250Z,100554.28
2023-05-19T09:25:53.429Z,100561.13
2023-05-19T09:28:29.611Z,100550.97
2023-05-19T09:31:02.010Z,100543.97
2023-05-19T09:33:31.181Z,100548.09
2023-05-19T09:35:59.493Z,100549.72
2023-05-19T09:38:28.200Z,100551.53
2023-05-19T09:41:00.043Z,100539.06
2023-05-19T09:43:29.484Z,100532.63
2023-05-19T09:46:01.622Z,100544.50
2023-05-19T09:48:30.437Z,100537.88
2023-05-19T09:50:59.226Z,100533.66
2023-05-19T09:53:27.704Z,100544.03
2023-05-19T09:55:59.465Z,100537.97
2023-05-19T09:58:28.113Z,100531.97
2023-05-19T10:00:57.159Z,100523.44
2023-05-19T10:03:26.589Z,100526.31
2023-05-19T10:05:55.160Z,100521.13
2023-05-19T10:08:24.598Z,100516.53
2023-05-19T10:10:53.120Z,100515.66
2023-05-19T10:13:23.911Z,100509.19
2023-05-19T10:15:59.023Z,100501.38
2023-05-19T10:18:29.916Z,100508.31
2023-05-19T10:20:59.060Z,100503.78
2023-05-19T10:23:27.309Z,100509.16
2023-05-19T10:26:00.136Z,100500.41
2023-05-19T10:28:36.481Z,100507.19
2023-05-19T10:31:08.275Z,100506.47
2023-05-19T10:33:53.754Z,100504.91
2023-05-19T10:36:40.629Z,100500.56
2023-05-19T10:39:17.910Z,100504.91
2023-05-19T10:42:00.538Z,100495.84
2023-05-19T10:44:47.877Z,100498.16
2023-05-19T10:47:16.450Z,100496.78
2023-05-19T10:49:46.195Z,100488.41
2023-05-19T10:52:23.403Z,100506.63
2023-05-19T10:54:51.800Z,100494.16
2023-05-19T10:57:21.766Z,100492.31
2023-05-19T10:59:51.439Z,100495.09
2023-05-19T11:02:39.299Z,100484.03
2023-05-19T11:05:11.118Z,100487.97
2023-05-19T11:07:43.689Z,100474.88
2023-05-19T11:10:12.844Z,100471.28
2023-05-19T11:12:46.679Z,100474.63
2023-05-19T11:15:17.656Z,100489.69
2023-05-19T11:17:49.867Z,100476.06
2023-05-19T11:20:25.463Z,100477.34
2023-05-19T11:23:06.674Z,100480.56
2023-05-19T11:25:45.927Z,100478.44
2023-05-19T11:28:14.621Z,100475.22
2023-05-19T11:30:45.989Z,100471.19
2023-05-19T11:33:15.238Z,100471.34
2023-05-19T11:35:44.607Z,100470.97
2023-05-19T11:38:13.340Z,100463.56
2023-05-19T11:40:46.092Z,100471.97
2023-05-19T11:43:14.187Z,100467.97
2023-05-19T11:45:44.106Z,100468.94
2023-05-19T11:48:13.146Z,100464.72
2023-05-19T11:50:44.162Z,100478.47
2023-05-19T11:53:14.246Z,100469.41
2023-05-19T11:55:47.358Z,100468.13
2023-05-19T11:58:16.335Z,100472.97
2023-05-19T12:00:48.062Z,100463.22
2023-05-19T12:03:17.707Z,100461.03
2023-05-19T12:05:49.695Z,100452.84
2023-05-19T12:08:18.957Z,100454.44
2023-05-19T12:10:50.900Z,100454.19
2023-05-19T12:13:19.140Z,100448.50
2023-05-19T12:15:48.744Z,100447.09
2023-05-19T12:18:16.969Z,100441.38
2023-05-19T12:20:45.547Z,100437.72
2023-05-19T12:23:14.537Z,100433.16
2023-05-19T12:25:42.859Z,100448.34
2023-05-19T12:28:11.710Z,100436.63
2023-05-19T12:30:39.926Z,100424.63
2023-05-19T12:33:10.128Z,100424.09
2023-05-19T12:35:39.022Z,100415.34
2023-05-19T12:38:08.012Z,100421.16
2023-05-19T12:40:36.876Z,100409.16
2023-05-19T12:43:05.706Z,100410.47
2023-05-19T12:45:36.305Z,100408.78
2023-05-19T12:48:06.703Z,100409.56
2023-05-19T12:50:39.210Z,100403.22
2023-05-19T12:53:09.459Z,100398.47
2023-05-19T12:55:42.507Z,100402.19
2023-05-19T12:58:11.672Z,100390.50
2023-05-19T13:00:43.651Z,100402.31
2023-05-19T13:03:17.367Z,100394.19
2023-05-19T13:05:48.915Z,100393.44
2023-05-19T13:08:20.548Z,100396.16
2023-05-19T13:10:49.302Z,100384.88
2023-05-19T13:13:18.512Z,100390.13
2023-05-19T13:15:49.200Z,100395.66
2023-05-19T13:18:19.357Z,100379.25
2023-05-19T13:20:50.328Z,100386.75
2023-05-19T13:23:18.736Z,100383.69
2023-05-19T13:25:47.280Z,100382.53
2023-05-19T13:28:15.440Z,100376.19
2023-05-19T13:30:45.225Z,100369.59
2023-05-19T13:33:13.376Z,100367.50
2023-05-19T13:35:41.542Z,100364.22
2023-05-19T13:38:11.259Z,100358.75
2023-05-19T13:40:39.908Z,100357.41
2023-05-19T13:43:08.892Z,100357.56
2023-05-19T13:45:37.219Z,100357.63
2023-05-19T13:48:07.503Z,100362.59
2023-05-19T13:50:35.928Z,100362.28
2023-05-19T13:53:04.199Z,100356.06
2023-05-19T13:55:33.879Z,100354.78
2023-05-19T13:58:02.035Z,100353.28
2023-05-19T14:00:30.971Z,100354.78
2023-05-19T14:03:00.566Z,100337.91
2023-05-19T14:05:29.262Z,100348.47
2023-05-19T14:07:58.186Z,100349.56
2023-05-19T14:10:26.649Z,100358.41
2023-05-19T14:13:25.891Z,100349.84
2023-05-19T14:15:49.144Z,100341.59
2023-05-19T14:18:17.336Z,100339.66
2023-05-19T14:20:45.489Z,100350.31
2023-05-19T14:23:15.602Z,100338.88
2023-05-19T14:25:43.898Z,100344.25
2023-05-19T14:28:13.379Z,100341.94
2023-05-19T14:30:41.710Z,100337.28
2023-05-19T14:33:10.436Z,100340.63
2023-05-19T14:35:38.673Z,100331.22
2023-05-19T14:38:06.751Z,100337.59
2023-05-19T14:40:35.295Z,100337.72
2023-05-19T14:43:03.529Z,100331.53
2023-05-19T14:45:33.116Z,100340.81
2023-05-19T14:48:01.300Z,100332.78
2023-05-19T14:50:29.542Z,100327.09
2023-05-19T14:52:58.117Z,100342.66
2023-05-19T14:55:26.488Z,100326.97
2023-05-19T14:57:54.658Z,100331.41
2023-05-19T15:00:22.842Z,100339.78
2023-05-19T15:02:52.416Z,100330.03
2023-05-19T15:05:20.871Z,100331.16
2023-05-19T15:07:51.406Z,100335.47
2023-05-19T15:10:21.026Z,100319.97
2023-05-19T15:12:49.266Z,100326.16
2023-05-19T15:15:17.452Z,100332.22
2023-05-19T15:17:47.075Z,100329.66
2023-05-19T15:20:16.720Z,100319.16
2023-05-19T15:22:44.905Z,100328.88
2023-05-19T15:25:13.038Z,100322.72
2023-05-19T15:27:41.205Z,100335.44
2023-05-19T15:30:10.040Z,100328.84
2023-05-19T15:32:38.234Z,100327.88
2023-05-19T15:35:07.157Z,100320.50
2023-05-19T15:37:36.702Z,100330.78
2023-05-19T15:40:05.648Z,100326.25
2023-05-19T15:42:33.817Z,100322.69
2023-05-19T15:45:02.079Z,100322.31
2023-05-19T15:47:30.227Z,100321.66
2023-05-19T15:49:58.501Z,100325.22
2023-05-19T15:52:26.936Z,100315.97
2023-05-19T15:54:59.096Z,100313.78
2023-05-19T15:57:27.136Z,100313.44
2023-05-19T15:59:55.193Z,100317.25
2023-05-19T16:02:23.436Z,100311.66
2023-05-19T16:04:51.547Z,100320.09
2023-05-19T16:07:19.640Z,100317.41
2023-05-19T16:09:47.783Z,100318.78
2023-05-19T16:12:17.288Z,100316.22
2023-05-19T16:14:45.362Z,100309.09
2023-05-19T16:17:16.678Z,100315.19
2023-05-19T16:19:44.860Z,100318.00
2023-05-19T16:22:13.067Z,100327.06
2023-05-19T16:24:41.190Z,100321.00
2023-05-19T16:27:09.316Z,100331.84
2023-05-19T16:29:39.485Z,100321.84
2023-05-19T16:32:08.381Z,100320.31
2023-05-19T16:34:36.649Z,100327.47
2023-05-19T16:37:05.148Z,100326.41
2023-05-19T16:39:33.352Z,100336.13
2023-05-19T16:42:01.918Z,100332.00
2023-05-19T16:44:30.026Z,100321.50
2023-05-19T16:46:59.586Z,100331.19
2023-05-19T16:49:27.708Z,100323.81
2023-05-19T16:51:56.780Z,100323.69
2023-05-19T16:54:25.521Z,100320.75
2023-05-19T16:56:53.719Z,100321.44
2023-05-19T16:59:21.872Z,100324.75
2023-05-19T17:01:50.187Z,100330.19
2023-05-19T17:04:19.795Z,100328.00
2023-05-19T17:06:47.922Z,100329.16
2023-05-19T17:09:16.004Z,100314.13
2023-05-19T17:11:44.177Z,100316.56
2023-05-19T17:14:12.801Z,100319.84
2023-05-19T17:16:40.950Z,100334.38
2023-05-19T17:19:09.188Z,100330.75
2023-05-19T17:21:38.697Z,100328.69
2023-05-19T17:24:07.759Z,100326.56
2023-05-19T17:26:35.992Z,100318.72
2023-05-19T17:29:04.095Z,100329.03
2023-05-19T17:31:32.240Z,100329.31
2023-05-19T17:34:00.427Z,100330.22
2023-05-19T17:36:28.595Z,100346.13
2023-05-19T17:38:58.258Z,100344.44
2023-05-19T17:41:26.502Z,100352.50
2023-05-19T17:43:54.616Z,100347.31
2023-05-19T17:46:22.731Z,100350.38
2023-05-19T17:48:51.021Z,100348.72
2023-05-19T17:51:19.577Z,100346.16
2023-05-19T17:53:48.414Z,100349.00
2023-05-19T17:56:20.007Z,100351.25
2023-05-19T17:58:49.489Z,100353.16
2023-05-19T18:01:18.104Z,100349.19
2023-05-19T18:03:49.817Z,100347.63
2023-05-19T18:06:20.516Z,100350.66
2023-05-19T18:08:51.271Z,100346.56
2023-05-19T18:11:21.587Z,100350.69
2023-05-19T18:13:49.829Z,100349.50
2023-05-19T18:16:18.124Z,100343.44
2023-05-19T18:18:50.521Z,100344.75
2023-05-19T18:21:18.911Z,100345.56
2023-05-19T18:23:48.115Z,100353.22
2023-05-19T18:26:16.363Z,100347.28
2023-05-19T18:28:46.028Z,100344.63
2023-05-19T18:31:19.631Z,100354.72
2023-05-19T18:33:48.422Z,100358.88
2023-05-19T18:36:16.822Z,100360.00
2023-05-19T18:38:45.124Z,100357.13
2023-05-19T18:41:14.674Z,100358.84
2023-05-19T18:43:42.783Z,100356.03
2023-05-19T18:46:13.597Z,100361.28
2023-05-19T18:48:41.888Z,100364.06
2023-05-19T18:51:10.224Z,100364.69
2023-05-19T18:53:38.662Z,100370.34
2023-05-19T18:56:07.634Z,100367.94
2023-05-19T18:58:35.788Z,100376.63
2023-05-19T19:01:03.967Z,100371.13
2023-05-19T19:03:33.676Z,100372.22
2023-05-19T19:06:02.219Z,100371.84
2023-05-19T19:08:30.465Z,100376.31
2023-05-19T19:11:01.150Z,100372.94
2023-05-19T19:13:29.375Z,100371.22
2023-05-19T19:15:57.569Z,100375.69
2023-05-19T19:18:26.739Z,100381.03
2023-05-19T19:20:57.387Z,100380.31
2023-05-19T19:23:25.801Z,100381.50
2023-05-19T19:25:56.201Z,100385.59
2023-05-19T19:28:24.548Z,100388.38
2023-05-19T19:30:52.869Z,100392.03
2023-05-19T19:33:21.137Z,100395.75
2023-05-19T19:35:49.370Z,100400.00
2023-05-19T19:38:19.008Z,100397.06
2023-05-19T19:40:47.538Z,100394.63
2023-05-19T19:43:15.778Z,100405.75
2023-05-19T19:45:43.901Z,100401.50
2023-05-19T19:48:12.200Z,100402.19
2023-05-19T19:50:40.766Z,100410.59
2023-05-19T19:53:09.544Z,100403.00
2023-05-19T19:55:39.048Z,100402.09
2023-05-19T19:58:07.134Z,100405.19
2023-05-19T20:00:35.456Z,100408.28
2023-05-19T20:03:05.904Z,100401.28
2023-05-19T20:05:34.466Z,100398.63
2023-05-19T20:08:02.621Z,100402.63
2023-05-19T20:10:31.323Z,100404.19
2023-05-19T20:13:00.977Z,100399.13
2023-05-19T20:15:29.158Z,100405.69
2023-05-19T20:17:57.348Z,100408.34
2023-05-19T20:20:26.129Z,100407.19
2023-05-19T20:22:54.226Z,100412.41
2023-05-19T20:25:24.042Z,100407.81
2023-05-19T20:27:52.196Z,100409.13
2023-05-19T20:30:21.797Z,100402.31
2023-05-19T20:32:50.266Z,100407.63
2023-05-19T20:35:18.467Z,100411.00
2023-05-19T20:37:48.091Z,100410.16
2023-05-19T20:40:16.318Z,100407.31
2023-05-19T20:42:44.476Z,100412.63
2023-05-19T20:45:12.793Z,100399.97
2023-05-19T20:47:43.620Z,100404.44
2023-05-19T20:50:12.091Z,100405.28
2023-05-19T20:52:40.249Z,100397.31
2023-05-19T20:55:08.999Z,100405.28
2023-05-19T20:57:40.777Z,100401.53
2023-05-19T21:00:12.695Z,100404.09
2023-05-19T21:02:42.416Z,100405.16
2023-05-19T21:05:10.888Z,100399.00
2023-05-19T21:07:39.147Z,100397.31
2023-05-19T21:10:12.573Z,100395.00
2023-05-19T21:12:40.733Z,100381.59
2023-05-19T21:15:10.394Z,100389.69
2023-05-19T21:17:38.586Z,100393.41
2023-05-19T21:20:09.886Z,100396.84
2023-05-19T21:22:38.039Z,100386.19
2023-05-19T21:25:07.125Z,100394.69
2023-05-19T21:27:36.384Z,100395.88
2023-05-19T21:30:04.810Z,100390.34
2023-05-19T21:32:32.943Z,100394.47
2023-05-19T21:35:01.385Z,100398.91
2023-05-19T21:37:30.892Z,100392.25
2023-05-19T21:39:59.394Z,100392.13
2023-05-19T21:42:27.515Z,100392.53
2023-05-19T21:44:55.743Z,100397.13
2023-05-19T21:47:23.875Z,100385.97
2023-05-19T21:49:52.012Z,100387.78
2023-05-19T21:52:20.132Z,100385.03
2023-05-19T21:54:52.038Z,100380.66
2023-05-19T21:57:20.148Z,100381.13
2023-05-19T21:59:48.398Z,100378.84
2023-05-19T22:02:16.529Z,100383.91
2023-05-19T22:04:44.970Z,100385.03
2023-05-19T22:07:13.096Z,100380.28
2023-05-19T22:09:41.499Z,100386.06
2023-05-19T22:12:11.180Z,100377.22
2023-05-19T22:14:39.278Z,100375.38
2023-05-19T22:17:07.436Z,100363.00
2023-05-19T22:19:35.773Z,100361.25
2023-05-19T22:22:13.064Z,100358.25
2023-05-19T22:24:41.856Z,100361.25
2023-05-19T22:27:11.729Z,100359.56
2023-05-19T22:29:39.847Z,100353.03
2023-05-19T22:32:11.867Z,100348.38
2023-05-19T22:34:40.319Z,100348.06
2023-05-19T22:37:08.471Z,100345.59
2023-05-19T22:39:36.693Z,100347.28
2023-05-19T22:42:05.078Z,100351.75
2023-05-19T22:44:34.623Z,100361.03
2023-05-19T22:47:02.794Z,100351.09
2023-05-19T22:49:30.876Z,100350.97
2023-05-19T22:51:59.077Z,100347.31
2023-05-19T22:54:27.196Z,100355.03
2023-05-19T22:56:55.323Z,100357.28
2023-05-19T22:59:23.519Z,100349.44
2023-05-19T23:01:53.107Z,100353.88
2023-05-19T23:04:21.209Z,100353.03
2023-05-19T23:06:50.439Z,100345.78
2023-05-19T23:09:18.690Z,100336.84
2023-05-19T23:11:46.886Z,100337.69
2023-05-19T23:14:18.632Z,100333.41
2023-05-19T23:16:46.856Z,100331.84
2023-05-19T23:19:17.196Z,100331.22
2023-05-19T23:21:46.052Z,100318.28
2023-05-19T23:24:14.166Z,100326.75
2023-05-19T23:26:43.988Z,100328.69
2023-05-19T23:29:13.442Z,100332.19
2023-05-19T23:31:41.658Z,100329.41
2023-05-19T23:34:09.856Z,100330.66
2023-05-19T23:36:39.341Z,100336.25
2023-05-19T23:39:07.533Z,100329.47
2023-05-19T23:41:36.800Z,100321.84
2023-05-19T23:44:05.015Z,100324.16
2023-05-19T23:46:33.303Z,100323.72
2023-05-19T23:49:01.607Z,100317.91
2023-05-19T23:51:29.759Z,100313.03
2023-05-19T23:53:59.638Z,100312.53
2023-05-19T23:56:27.730Z,100297.19
2023-05-19T23:58:56.012Z,100301.66
